地図

経路データ

SID SEASON NUMBER BASIN SUBBASIN NAME ISO_TIME NATURE LAT LON WMO_WIND WMO_PRES WMO_AGENCY TRACK_TYPE DIST2LAND LANDFALL IFLAG USA_AGENCY USA_ATCF_ID USA_LAT USA_LON USA_RECORD USA_STATUS USA_WIND USA_PRES USA_SSHS USA_R34_NE USA_R34_SE USA_R34_SW USA_R34_NW USA_R50_NE USA_R50_SE USA_R50_SW USA_R50_NW USA_R64_NE USA_R64_SE USA_R64_SW USA_R64_NW USA_POCI USA_ROCI USA_RMW USA_EYE TOKYO_LAT TOKYO_LON TOKYO_GRADE TOKYO_WIND TOKYO_PRES TOKYO_R50_DIR TOKYO_R50_LONG TOKYO_R50_SHORT TOKYO_R30_DIR TOKYO_R30_LONG TOKYO_R30_SHORT TOKYO_LAND CMA_LAT CMA_LON CMA_CAT CMA_WIND CMA_PRES HKO_LAT HKO_LON HKO_CAT HKO_WIND HKO_PRES NEWDELHI_LAT NEWDELHI_LON NEWDELHI_GRADE NEWDELHI_WIND NEWDELHI_PRES NEWDELHI_CI NEWDELHI_DP NEWDELHI_POCI REUNION_LAT REUNION_LON REUNION_TYPE REUNION_WIND REUNION_PRES REUNION_TNUM REUNION_CI REUNION_RMW REUNION_R34_NE REUNION_R34_SE REUNION_R34_SW REUNION_R34_NW REUNION_R50_NE REUNION_R50_SE REUNION_R50_SW REUNION_R50_NW REUNION_R64_NE REUNION_R64_SE REUNION_R64_SW REUNION_R64_NW BOM_LAT BOM_LON BOM_TYPE BOM_WIND BOM_PRES BOM_TNUM BOM_CI BOM_RMW BOM_R34_NE BOM_R34_SE BOM_R34_SW BOM_R34_NW BOM_R50_NE BOM_R50_SE BOM_R50_SW BOM_R50_NW BOM_R64_NE BOM_R64_SE BOM_R64_SW BOM_R64_NW BOM_ROCI BOM_POCI BOM_EYE BOM_POS_METHOD BOM_PRES_METHOD NADI_LAT NADI_LON NADI_CAT NADI_WIND NADI_PRES WELLINGTON_LAT WELLINGTON_LON WELLINGTON_WIND WELLINGTON_PRES DS824_LAT DS824_LON DS824_STAGE DS824_WIND DS824_PRES TD9636_LAT TD9636_LON TD9636_STAGE TD9636_WIND TD9636_PRES TD9635_LAT TD9635_LON TD9635_WIND TD9635_PRES TD9635_ROCI NEUMANN_LAT NEUMANN_LON NEUMANN_CLASS NEUMANN_WIND NEUMANN_PRES MLC_LAT MLC_LON MLC_CLASS MLC_WIND MLC_PRES USA_GUST BOM_GUST BOM_GUST_PER REUNION_GUST REUNION_GUST_PER USA_SEAHGT USA_SEARAD_NE USA_SEARAD_SE USA_SEARAD_SW USA_SEARAD_NW STORM_SPEED STORM_DIR
1920121N11088 1920 16 NI BB NOT_NAMED 1920-04-30 00:00:00 TS 11.3000 87.8000 main 773 773 _________O____ -1 11.3000 87.8000 TC 45 2 0
1920121N11088 1920 16 NI BB NOT_NAMED 1920-04-30 03:00:00 TS 11.4067 87.8083 main 777 777 _________PO___ -1 11.4600 87.8125 TC 45 11.3000 87.8000 3 2 357
1920121N11088 1920 16 NI BB NOT_NAMED 1920-04-30 06:00:00 TS 11.5338 87.7900 main 782 782 _________OP___ -1 11.6000 87.8000 TC 45 11.4344 87.7750 3 2 346
1920121N11088 1920 16 NI BB NOT_NAMED 1920-04-30 09:00:00 TS 11.6464 87.7500 main 787 782 _________PP___ -1 11.7075 87.7500 TC 45 11.5650 87.7500 3 2 340
1920121N11088 1920 16 NI BB NOT_NAMED 1920-04-30 12:00:00 TS 11.7441 87.7125 main 782 782 _________OP___ -1 11.8000 87.7000 TC 45 11.6881 87.7250 3 2 346
1920121N11088 1920 16 NI BB NOT_NAMED 1920-04-30 15:00:00 TS 11.8500 87.7000 main 784 784 _________PO___ -1 11.9000 87.7000 TC 45 11.8000 87.7000 3 2 358
1920121N11088 1920 16 NI BB NOT_NAMED 1920-04-30 18:00:00 TS 11.9495 87.6875 main 784 777 _________OP___ -1 12.0000 87.7000 TC 45 11.8991 87.6750 3 2 347
1920121N11088 1920 16 NI BB NOT_NAMED 1920-04-30 21:00:00 TS 12.0425 87.6537 main 777 761 _________PP___ -1 12.0925 87.6575 TC 45 11.9925 87.6500 3 2 342
1920121N11088 1920 16 NI BB NOT_NAMED 1920-05-01 00:00:00 TS 12.1448 87.6125 main 761 746 _________OP___ -1 12.2000 87.6000 TC 45 12.0897 87.6250 3 2 342
1920121N11088 1920 16 NI BB NOT_NAMED 1920-05-01 03:00:00 TS 12.2713 87.5713 main 746 731 _________PO___ -1 12.3425 87.5425 TC 45 12.2000 87.6000 3 3 344
1920121N11088 1920 16 NI BB NOT_NAMED 1920-05-01 06:00:00 TS 12.4219 87.5334 main 731 716 _________OP___ -1 12.5000 87.5000 TC 45 12.3438 87.5669 3 3 351
1920121N11088 1920 16 NI BB NOT_NAMED 1920-05-01 09:00:00 TS 12.5787 87.5138 main 716 709 _________PP___ -1 12.6575 87.4925 TC 45 12.5000 87.5350 3 3 358
1920121N11088 1920 16 NI BB NOT_NAMED 1920-05-01 12:00:00 TS 12.7281 87.5053 main 709 702 _________OP___ -1 12.8000 87.5000 TC 45 12.6562 87.5107 3 3 0
1920121N11088 1920 16 NI BB NOT_NAMED 1920-05-01 15:00:00 TS 12.8537 87.4963 main 695 695 _________PO___ -1 12.9075 87.4925 TC 45 12.8000 87.5000 3 2 0
1920121N11088 1920 16 NI BB NOT_NAMED 1920-05-01 18:00:00 TS 12.9531 87.5053 main 689 689 _________OP___ -1 13.0000 87.5000 TC 45 12.9062 87.5106 3 2 13
1920121N11088 1920 16 NI BB NOT_NAMED 1920-05-01 21:00:00 TS 13.0463 87.5387 main 689 682 _________PP___ -1 13.0925 87.5425 TC 45 13.0000 87.5350 3 2 22
1920121N11088 1920 16 NI BB NOT_NAMED 1920-05-02 00:00:00 TS 13.1469 87.5834 main 690 673 _________OP___ -1 13.2000 87.6000 TC 45 13.0938 87.5669 3 2 21
1920121N11088 1920 16 NI BB NOT_NAMED 1920-05-02 03:00:00 TS 13.2713 87.6287 main 673 670 _________PO___ -1 13.3425 87.6575 TC 45 13.2000 87.6000 3 3 15
1920121N11088 1920 16 NI BB NOT_NAMED 1920-05-02 06:00:00 TS 13.4219 87.6645 main 670 651 _________OP___ -1 13.5000 87.7000 TC 45 13.3438 87.6290 3 3 9
1920121N11088 1920 16 NI BB NOT_NAMED 1920-05-02 09:00:00 TS 13.5788 87.6825 main 651 642 _________PP___ -1 13.6575 87.7075 TC 45 13.5000 87.6575 3 3 2
1920121N11088 1920 16 NI BB NOT_NAMED 1920-05-02 12:00:00 TS 13.7281 87.6911 main 642 633 _________OP___ -1 13.8000 87.7000 TC 45 13.6563 87.6822 3 3 0
1920121N11088 1920 16 NI BB NOT_NAMED 1920-05-02 15:00:00 TS 13.8538 87.7000 main 624 624 _________PO___ -1 13.9075 87.7000 TC 45 13.8000 87.7000 3 2 0
1920121N11088 1920 16 NI BB NOT_NAMED 1920-05-02 18:00:00 TS 13.9429 87.6895 main 624 616 _________OP___ -1 14.0000 87.7000 TC 45 13.8859 87.6789 3 2 345
1920121N11088 1920 16 NI BB NOT_NAMED 1920-05-02 21:00:00 TS 14.0162 87.6665 main 616 607 _________PP___ -1 14.0700 87.6776 TC 45 13.9624 87.6553 3 2 0
1920121N11088 1920 16 NI BB NOT_NAMED 1920-05-03 00:00:00 TS 14.1289 87.6770 main 607 589 _________OP___ -1 14.2000 87.7000 TC 45 14.0577 87.6540 3 3 15
1920121N11088 1920 16 NI BB NOT_NAMED 1920-05-03 03:00:00 TS 14.3388 87.7600 main 596 579 _________PO___ -1 14.4775 87.8199 TC 45 14.2000 87.7000 3 5 25
1920121N11088 1920 16 NI BB NOT_NAMED 1920-05-03 06:00:00 TS 14.6205 87.9142 main 579 571 _________OP___ -1 14.8000 88.0000 TC 45 14.4410 87.8284 3 7 31
1920121N11088 1920 16 NI BB NOT_NAMED 1920-05-03 09:00:00 TS 14.8963 88.1023 main 571 563 _________PP___ -1 15.0650 88.2000 TC 45 14.7276 88.0045 3 7 35
1920121N11088 1920 16 NI BB NOT_NAMED 1920-05-03 12:00:00 TS 15.1627 88.3017 main 562 554 _________OP___ -1 15.3000 88.4000 TC 45 15.0254 88.2034 3 6 35
1920121N11088 1920 16 NI BB NOT_NAMED 1920-05-03 15:00:00 TS 15.4075 88.4788 main 560 544 _________PO___ -1 15.5150 88.5575 TC 45 15.3000 88.4000 3 5 35
1920121N11088 1920 16 NI BB NOT_NAMED 1920-05-03 18:00:00 TS 15.5834 88.6067 main 544 539 _________OP___ -1 15.7000 88.7000 TC 45 15.4668 88.5134 3 4 37
1920121N11088 1920 16 NI BB NOT_NAMED 1920-05-03 21:00:00 TS 15.7159 88.7196 main 539 529 _________PP___ -1 15.8199 88.8128 TC 45 15.6119 88.6265 3 4 42
1920121N11088 1920 16 NI BB NOT_NAMED 1920-05-04 00:00:00 TS 15.8880 88.8881 main 529 515 _________OP___ -1 16.0000 89.0000 TC 45 15.7760 88.7762 3 6 43
1920121N11088 1920 16 NI BB NOT_NAMED 1920-05-04 03:00:00 TS 16.1813 89.1774 main 518 501 _________PO___ -1 16.3626 89.3549 TC 45 16.0000 89.0000 3 10 43
1920121N11088 1920 16 NI BB NOT_NAMED 1920-05-04 06:00:00 TS 16.5799 89.5685 main 495 450 _________OP___ -1 16.8000 89.8000 TC 45 16.3599 89.3370 3 11 44
1920121N11088 1920 16 NI BB NOT_NAMED 1920-05-04 09:00:00 TS 16.9964 89.9969 main 450 391 _________PP___ -1 17.2149 90.2425 TC 45 16.7778 89.7513 3 12 46
1920121N11088 1920 16 NI BB NOT_NAMED 1920-05-04 12:00:00 TS 17.4033 90.4576 main 382 329 _________OP___ -1 17.6000 90.7000 TC 45 17.2067 90.2152 3 12 49
1920121N11088 1920 16 NI BB NOT_NAMED 1920-05-04 15:00:00 TS 17.7649 90.9213 main 324 276 _________PO___ -1 17.9298 91.1427 TC 45 17.6000 90.7000 3 11 53
1920121N11088 1920 16 NI BB NOT_NAMED 1920-05-04 18:00:00 TS 18.0414 91.3611 main 267 214 _________OP___ -1 18.2000 91.6000 TC 45 17.9224 91.1819 3 10 59
1920121N11088 1920 16 NI BB NOT_NAMED 1920-05-04 21:00:00 TS 18.2759 91.8305 main 214 157 _________PP___ -1 18.4153 92.0898 TC 45 18.1830 91.6577 3 10 64
1920121N11088 1920 16 NI BB NOT_NAMED 1920-05-05 00:00:00 TS 18.4681 92.2864 main 157 124 _________OP___ -1 18.6000 92.6000 TC 45 18.4022 92.1296 3 8 66
1920121N11088 1920 16 NI BB NOT_NAMED 1920-05-05 03:00:00 NR 18.6000 92.6000 main 124 __________O___ -1 TC 18.6000 92.6000 3 7 66

IBTrACS Databaseについて

本データベースは、米国NOAAが公開する1842年以降の世界の熱帯低気圧のベストトラックデータアーカイブInternational Best Track Archive for Climate Stewardship (IBTrACS)を、ウェブで閲覧しやすい形式に変換したものです。

最終更新日:2021-10-21